Time;durP1;ratioP1;P1;durP2;ratioP2;P2;SDS_P1;SDS_P2;PMS_P1;PMS_P2;Temp;Humidity;BMP_temperature;BMP_pressure;BME280_temperature;BME280_humidity;BME280_pressure;Samples;Min_cycle;Max_cycle;Signal;HPM_P1;HPM_P2
2020/12/20 00:02:09;;;;;;;19.08;12.32;;;5.50;95.10;;;;;;5086138;28;27448;-60
2020/12/20 00:04:54;;;;;;;20.27;13.00;;;5.50;95.00;;;;;;5086160;28;27457;-61
2020/12/20 00:07:38;;;;;;;20.85;12.35;;;5.50;95.00;;;;;;5085724;28;27597;-60
2020/12/20 00:10:24;;;;;;;18.33;12.05;;;5.50;95.10;;;;;;5085818;28;27992;-61
2020/12/20 00:13:08;;;;;;;15.68;10.93;;;5.50;95.10;;;;;;5085664;28;27486;-61
2020/12/20 00:15:53;;;;;;;19.08;12.40;;;5.40;95.00;;;;;;5086120;28;27406;-60
2020/12/20 00:18:38;;;;;;;17.65;11.90;;;5.40;95.00;;;;;;5085932;28;27451;-61
2020/12/20 00:21:23;;;;;;;20.45;11.27;;;5.40;95.10;;;;;;5085302;28;27423;-61
2020/12/20 00:24:11;;;;;;;16.73;11.93;;;5.40;95.10;;;;;;5085658;28;27423;-61
2020/12/20 00:26:56;;;;;;;17.27;10.85;;;5.40;95.00;;;;;;5085765;28;27415;-61
2020/12/20 00:29:41;;;;;;;14.02;10.98;;;5.40;95.10;;;;;;5085471;28;27411;-61
2020/12/20 00:32:26;;;;;;;17.55;11.73;;;5.40;95.00;;;;;;5085375;28;27462;-61
2020/12/20 00:35:10;;;;;;;15.73;10.95;;;5.40;95.10;;;;;;5085669;28;27482;-61
2020/12/20 00:37:55;;;;;;;17.30;11.35;;;5.40;95.10;;;;;;5084738;28;27456;-60
2020/12/20 00:40:39;;;;;;;18.13;11.15;;;5.40;95.10;;;;;;5085343;28;27398;-60
2020/12/20 00:43:24;;;;;;;16.25;11.35;;;5.30;95.10;;;;;;5085467;28;27478;-59
2020/12/20 00:46:09;;;;;;;16.10;11.68;;;5.30;95.10;;;;;;5070250;28;27512;-60
2020/12/20 00:48:53;;;;;;;16.40;10.95;;;5.30;95.10;;;;;;5069272;28;27451;-61
2020/12/20 00:51:38;;;;;;;16.73;10.40;;;5.30;95.10;;;;;;5085492;28;27414;-61
2020/12/20 00:54:23;;;;;;;16.90;11.82;;;5.30;95.20;;;;;;5084127;28;27868;-60
2020/12/20 00:57:08;;;;;;;18.00;11.18;;;5.30;95.20;;;;;;5082139;28;27520;-61
2020/12/20 00:59:54;;;;;;;15.93;11.27;;;5.30;95.20;;;;;;5085374;28;27484;-61
2020/12/20 01:02:39;;;;;;;19.63;12.13;;;5.30;95.20;;;;;;5082178;28;27440;-61
2020/12/20 01:05:24;;;;;;;16.50;10.90;;;5.30;95.20;;;;;;5067090;28;27422;-61
2020/12/20 01:08:09;;;;;;;15.70;11.13;;;5.30;95.20;;;;;;5081942;28;27396;-61
2020/12/20 01:10:54;;;;;;;16.10;10.82;;;5.30;95.20;;;;;;5066949;28;27405;-59
2020/12/20 01:13:54;;;;;;;16.40;10.70;;;5.30;95.20;;;;;;5081779;28;27404;-61
2020/12/20 01:16:39;;;;;;;17.05;10.10;;;5.30;95.30;;;;;;5084378;28;27403;-61
2020/12/20 01:19:23;;;;;;;17.02;11.07;;;5.30;95.30;;;;;;5081607;28;27391;-61
2020/12/20 01:22:08;;;;;;;17.38;11.32;;;5.30;95.30;;;;;;5081879;28;27403;-61
2020/12/20 01:24:54;;;;;;;17.25;10.68;;;5.30;95.30;;;;;;5081773;28;27304;-60
2020/12/20 01:27:39;;;;;;;13.82;9.43;;;5.30;95.30;;;;;;5066332;28;27363;-60
2020/12/20 01:30:24;;;;;;;19.17;11.15;;;5.30;95.30;;;;;;5084705;28;27406;-58
2020/12/20 01:33:08;;;;;;;14.85;10.38;;;5.30;95.30;;;;;;5066246;28;27413;-61
2020/12/20 01:36:07;;;;;;;14.77;10.05;;;5.30;95.30;;;;;;5066232;28;27374;-61
2020/12/20 01:38:52;;;;;;;12.95;9.20;;;5.30;95.30;;;;;;5066254;28;27418;-61
2020/12/20 01:41:38;;;;;;;15.38;9.77;;;5.30;95.30;;;;;;5084417;28;27411;-61
2020/12/20 01:44:24;;;;;;;14.80;10.15;;;5.30;95.30;;;;;;5067716;28;27597;-61
2020/12/20 01:47:09;;;;;;;15.38;9.45;;;5.30;95.30;;;;;;5066405;28;27424;-61
2020/12/20 01:49:55;;;;;;;15.80;10.45;;;5.30;95.30;;;;;;5065902;28;27414;-61
2020/12/20 01:52:40;;;;;;;14.68;9.55;;;5.30;95.30;;;;;;5066183;28;27470;-61
2020/12/20 01:55:27;;;;;;;14.70;9.57;;;5.30;95.30;;;;;;5053073;28;27386;-61
2020/12/20 01:58:16;;;;;;;14.88;9.25;;;5.30;95.30;;;;;;5066840;28;27407;-61
2020/12/20 02:01:08;;;;;;;14.45;9.13;;;5.30;95.30;;;;;;5065892;28;27844;-60
2020/12/20 02:04:02;;;;;;;13.43;8.40;;;5.30;95.30;;;;;;5080634;28;27434;-59
2020/12/20 02:06:53;;;;;;;12.27;8.82;;;5.30;95.30;;;;;;5081220;28;27415;-61
2020/12/20 02:09:44;;;;;;;14.57;8.77;;;5.30;95.30;;;;;;5066122;28;27323;-61
2020/12/20 02:12:28;;;;;;;13.20;8.25;;;5.30;95.30;;;;;;5083799;28;27874;-50
2020/12/20 02:15:28;;;;;;;12.82;8.13;;;5.30;95.30;;;;;;5080738;28;27454;-61
2020/12/20 02:18:16;;;;;;;12.50;8.23;;;5.30;95.30;;;;;;5080832;28;27377;-61
2020/12/20 02:21:31;;;;;;;11.23;7.90;;;5.30;95.30;;;;;;5084069;28;27363;-61
2020/12/20 02:24:21;;;;;;;12.02;8.13;;;5.30;95.30;;;;;;5080610;28;27372;-61
2020/12/20 02:27:11;;;;;;;11.63;8.15;;;5.30;95.40;;;;;;5080647;28;27517;-61
2020/12/20 02:30:05;;;;;;;11.50;7.68;;;5.30;95.40;;;;;;5065896;28;27478;-61
2020/12/20 02:32:50;;;;;;;12.27;8.00;;;5.30;95.40;;;;;;5065446;28;27427;-61
2020/12/20 02:35:34;;;;;;;13.05;7.63;;;5.30;95.40;;;;;;5065797;28;28113;-59
2020/12/20 02:38:19;;;;;;;11.48;7.75;;;5.30;95.40;;;;;;5065701;28;27424;-60
2020/12/20 02:41:24;;;;;;;11.18;7.68;;;5.30;95.40;;;;;;5083163;28;27027;-59
2020/12/20 02:44:10;;;;;;;9.65;7.22;;;5.30;95.40;;;;;;5083888;28;27454;-60
2020/12/20 02:46:59;;;;;;;11.10;7.75;;;5.30;95.40;;;;;;5065681;28;27300;-61
2020/12/20 02:49:46;;;;;;;12.07;7.70;;;5.30;95.40;;;;;;5080622;28;27303;-60
2020/12/20 02:52:50;;;;;;;12.77;7.78;;;5.30;95.40;;;;;;5080724;28;27391;-61
2020/12/20 02:55:36;;;;;;;10.93;7.90;;;5.30;95.40;;;;;;5065266;28;27374;-61
2020/12/20 02:58:28;;;;;;;9.65;7.50;;;5.30;95.40;;;;;;5065251;28;27310;-61
2020/12/20 03:01:21;;;;;;;11.98;7.60;;;5.30;95.40;;;;;;5082332;28;27411;-61
2020/12/20 03:04:07;;;;;;;11.15;8.02;;;5.30;95.40;;;;;;5068591;28;27341;-61
2020/12/20 03:06:52;;;;;;;11.15;7.68;;;5.30;95.40;;;;;;5083913;28;27327;-61
2020/12/20 03:09:37;;;;;;;11.57;7.22;;;5.30;95.40;;;;;;5068721;28;27331;-61
2020/12/20 03:12:22;;;;;;;8.50;6.55;;;5.30;95.40;;;;;;5086931;28;27553;-50
2020/12/20 03:15:07;;;;;;;11.10;6.63;;;5.30;95.40;;;;;;5083717;28;27359;-60
2020/12/20 03:17:52;;;;;;;10.13;7.30;;;5.30;95.40;;;;;;5068421;28;27403;-60
2020/12/20 03:20:38;;;;;;;10.88;6.93;;;5.30;95.40;;;;;;5083619;28;27366;-60
2020/12/20 03:23:23;;;;;;;10.35;7.25;;;5.30;95.40;;;;;;5068255;28;27521;-61
2020/12/20 03:26:26;;;;;;;9.57;7.25;;;5.30;95.50;;;;;;5086539;28;27419;-60
2020/12/20 03:29:32;;;;;;;12.50;7.68;;;5.30;95.50;;;;;;5068588;28;27471;-61
2020/12/20 03:32:49;;;;;;;10.15;7.40;;;5.30;95.50;;;;;;5051013;28;27449;-61
2020/12/20 03:35:57;;;;;;;9.80;6.90;;;5.30;95.40;;;;;;5084960;28;27423;-61
2020/12/20 03:38:41;;;;;;;12.70;8.27;;;5.30;95.50;;;;;;5068440;28;27363;-61
2020/12/20 03:41:26;;;;;;;9.02;6.85;;;5.30;95.40;;;;;;5068295;28;27438;-61
2020/12/20 03:44:12;;;;;;;10.18;6.68;;;5.30;95.50;;;;;;5067772;28;27321;-61
2020/12/20 03:46:56;;;;;;;10.52;7.57;;;5.30;95.50;;;;;;5086253;28;27381;-59
2020/12/20 03:49:42;;;;;;;10.57;7.20;;;5.30;95.50;;;;;;5068181;28;27454;-60
2020/12/20 03:52:27;;;;;;;9.43;7.22;;;5.30;95.50;;;;;;5067733;28;27423;-51
2020/12/20 03:55:20;;;;;;;9.10;7.00;;;5.30;95.50;;;;;;5067644;28;27923;-60
2020/12/20 03:58:07;;;;;;;9.25;6.70;;;5.30;95.40;;;;;;5067617;28;27450;-59
2020/12/20 04:00:52;;;;;;;8.88;6.85;;;5.30;95.50;;;;;;5082635;28;27427;-60
2020/12/20 04:03:46;;;;;;;10.25;7.22;;;5.30;95.50;;;;;;5084858;28;27337;-60
2020/12/20 04:06:32;;;;;;;10.95;7.15;;;5.30;95.50;;;;;;5086088;28;27971;-61
2020/12/20 04:09:17;;;;;;;9.90;7.40;;;5.20;95.40;;;;;;5082848;28;27495;-60
2020/12/20 04:12:28;;;;;;;11.05;6.88;;;5.30;95.50;;;;;;5082305;28;27325;-60
2020/12/20 04:15:12;;;;;;;9.55;6.82;;;5.20;95.40;;;;;;5067696;28;26946;-60
2020/12/20 04:17:58;;;;;;;11.23;6.72;;;5.30;95.50;;;;;;5067543;28;27319;-61
2020/12/20 04:20:43;;;;;;;9.45;7.15;;;5.20;95.50;;;;;;5067529;28;27387;-60
2020/12/20 04:23:28;;;;;;;10.65;6.35;;;5.20;95.50;;;;;;5067324;28;27411;-61
2020/12/20 04:26:27;;;;;;;10.77;7.35;;;5.20;95.50;;;;;;5082249;28;27318;-60
2020/12/20 04:29:31;;;;;;;12.25;7.00;;;5.20;95.50;;;;;;5082149;28;27839;-59
2020/12/20 04:32:19;;;;;;;11.38;7.45;;;5.20;95.50;;;;;;5069796;28;27415;-60
2020/12/20 04:35:04;;;;;;;11.80;7.00;;;5.20;95.50;;;;;;5066781;28;27469;-60
2020/12/20 04:37:49;;;;;;;10.38;7.63;;;5.20;95.50;;;;;;5085275;28;27462;-58
2020/12/20 04:40:43;;;;;;;10.82;7.25;;;5.20;95.50;;;;;;5067107;28;27678;-61
2020/12/20 04:43:29;;;;;;;9.40;6.88;;;5.20;95.50;;;;;;5070719;28;27477;-59
2020/12/20 04:46:17;;;;;;;9.10;6.90;;;5.20;95.50;;;;;;5067552;28;27424;-59
2020/12/20 04:49:14;;;;;;;8.85;6.15;;;5.20;95.50;;;;;;5082156;28;27393;-61
2020/12/20 04:52:00;;;;;;;11.10;7.60;;;5.20;95.50;;;;;;5067423;28;27301;-61
2020/12/20 04:54:48;;;;;;;10.20;6.78;;;5.20;95.50;;;;;;5039459;28;27424;-61
2020/12/20 04:57:53;;;;;;;11.98;6.97;;;5.20;95.50;;;;;;5070699;28;27438;-61
2020/12/20 05:00:42;;;;;;;11.18;7.13;;;5.20;95.50;;;;;;5067113;28;27371;-61
2020/12/20 05:03:28;;;;;;;9.85;6.82;;;5.20;95.50;;;;;;5038656;28;27384;-61
2020/12/20 05:06:13;;;;;;;12.90;8.05;;;5.20;95.50;;;;;;5066708;28;27371;-61
2020/12/20 05:09:04;;;;;;;11.65;7.28;;;5.20;95.50;;;;;;5053285;28;27359;-60
2020/12/20 05:11:55;;;;;;;10.05;6.55;;;5.20;95.70;;;;;;5082155;28;27387;-60
2020/12/20 05:14:46;;;;;;;10.70;6.30;;;5.20;95.50;;;;;;5081496;28;27444;-60
2020/12/20 05:17:38;;;;;;;8.57;6.90;;;5.20;95.50;;;;;;5081462;28;27499;-60
2020/12/20 05:20:49;;;;;;;7.93;6.50;;;5.10;95.50;;;;;;5081905;28;27370;-60
2020/12/20 05:23:37;;;;;;;9.77;6.43;;;5.10;95.50;;;;;;5066140;28;27470;-61
2020/12/20 05:27:02;;;;;;;10.02;7.13;;;5.10;95.50;;;;;;5081250;28;27336;-61
2020/12/20 05:29:50;;;;;;;10.02;6.90;;;5.10;95.50;;;;;;5066369;28;27469;-61
2020/12/20 05:32:38;;;;;;;10.05;7.35;;;5.10;95.50;;;;;;5081513;28;27392;-60
2020/12/20 05:35:23;;;;;;;11.18;7.38;;;5.10;95.50;;;;;;5066328;28;27364;-61
2020/12/20 05:38:08;;;;;;;8.75;6.75;;;5.10;95.90;;;;;;5084627;28;27332;-61
2020/12/20 05:40:53;;;;;;;9.20;6.88;;;5.10;95.50;;;;;;5066460;28;27324;-59
2020/12/20 05:43:38;;;;;;;9.43;6.82;;;5.10;95.50;;;;;;5084801;28;27380;-61
2020/12/20 05:46:27;;;;;;;10.27;6.75;;;5.10;95.60;;;;;;5066402;28;27372;-61
2020/12/20 05:49:18;;;;;;;9.82;6.88;;;5.10;95.60;;;;;;5052814;28;27450;-61
2020/12/20 05:52:08;;;;;;;9.10;6.55;;;5.10;95.60;;;;;;5084191;28;27473;-61
2020/12/20 05:54:53;;;;;;;9.20;7.00;;;5.10;95.60;;;;;;5084398;28;27403;-61
2020/12/20 05:57:38;;;;;;;9.27;6.32;;;5.10;95.60;;;;;;5084593;28;27427;-58
2020/12/20 06:00:22;;;;;;;11.95;6.65;;;5.10;95.60;;;;;;5084575;28;27547;-61
2020/12/20 06:03:07;;;;;;;10.10;7.15;;;5.10;95.60;;;;;;5041414;28;27763;-61
2020/12/20 06:05:52;;;;;;;10.82;6.65;;;5.10;95.60;;;;;;5084799;28;26929;-60
2020/12/20 06:08:37;;;;;;;9.27;6.97;;;5.10;95.60;;;;;;5084188;28;27403;-51
2020/12/20 06:11:24;;;;;;;10.88;7.25;;;5.10;95.60;;;;;;5038109;28;27919;-50
2020/12/20 06:14:09;;;;;;;9.23;6.57;;;5.00;95.60;;;;;;5080500;28;27442;-61
2020/12/20 06:17:08;;;;;;;8.70;6.65;;;5.00;95.60;;;;;;5054924;28;27467;-61
2020/12/20 06:20:00;;;;;;;10.85;6.93;;;5.00;95.60;;;;;;5084376;28;27382;-61
2020/12/20 06:22:51;;;;;;;8.95;6.43;;;5.00;95.60;;;;;;5083955;28;27502;-61
2020/12/20 06:25:36;;;;;;;8.68;6.38;;;5.00;95.60;;;;;;5070058;28;27375;-61
2020/12/20 06:28:25;;;;;;;10.13;6.22;;;5.00;95.60;;;;;;5054968;28;27436;-60
2020/12/20 06:31:10;;;;;;;10.95;6.53;;;5.00;95.60;;;;;;5083890;28;27458;-60
2020/12/20 06:33:54;;;;;;;11.52;6.72;;;5.00;95.60;;;;;;5054695;28;27399;-61
2020/12/20 06:36:39;;;;;;;8.65;6.20;;;5.00;95.60;;;;;;5057001;28;27491;-61
2020/12/20 06:39:41;;;;;;;13.52;6.95;;;5.00;95.60;;;;;;5058091;28;27439;-61
2020/12/20 06:42:39;;;;;;;9.82;6.97;;;5.00;95.60;;;;;;5087252;28;27395;-60
2020/12/20 06:45:24;;;;;;;8.65;6.03;;;5.00;95.60;;;;;;5085417;28;27476;-61
2020/12/20 06:48:09;;;;;;;11.05;7.28;;;5.00;95.70;;;;;;5087075;28;27430;-61
2020/12/20 06:50:54;;;;;;;9.20;6.25;;;5.00;95.70;;;;;;5087365;28;27572;-61
2020/12/20 06:53:52;;;;;;;13.30;7.15;;;5.00;95.70;;;;;;5086324;28;27702;-61
2020/12/20 06:56:37;;;;;;;10.32;6.43;;;5.00;95.70;;;;;;5087218;28;27918;-49
2020/12/20 06:59:51;;;;;;;9.48;6.43;;;4.90;95.60;;;;;;5087250;28;27458;-60
2020/12/20 07:02:46;;;;;;;11.15;7.10;;;5.00;95.70;;;;;;5063240;28;27431;-61
2020/12/20 07:05:40;;;;;;;8.65;6.43;;;4.90;95.70;;;;;;5068572;28;27483;-60
2020/12/20 07:08:26;;;;;;;11.43;6.75;;;4.90;95.60;;;;;;5087077;28;27490;-61
2020/12/20 07:11:25;;;;;;;11.95;7.13;;;4.90;95.70;;;;;;5086490;28;27427;-61
2020/12/20 07:14:20;;;;;;;9.90;6.32;;;4.90;95.70;;;;;;5083630;28;27301;-60
2020/12/20 07:17:04;;;;;;;9.95;7.18;;;5.00;95.70;;;;;;5086764;28;27340;-61
2020/12/20 07:20:09;;;;;;;10.02;6.82;;;4.90;95.70;;;;;;5057486;28;27384;-61
2020/12/20 07:22:53;;;;;;;7.82;6.15;;;5.00;96.00;;;;;;5086821;28;27401;-61
2020/12/20 07:25:38;;;;;;;10.68;6.68;;;5.00;95.70;;;;;;5071657;28;27371;-61
2020/12/20 07:28:22;;;;;;;8.40;6.30;;;5.00;95.70;;;;;;5071760;28;27429;-61
2020/12/20 07:31:17;;;;;;;10.30;6.57;;;5.00;95.60;;;;;;5086848;28;27458;-61
2020/12/20 07:34:03;;;;;;;10.23;6.53;;;5.00;95.60;;;;;;5086503;28;27593;-60
2020/12/20 07:36:48;;;;;;;9.57;6.80;;;5.10;95.50;;;;;;5086676;28;27397;-61
2020/12/20 07:39:32;;;;;;;8.63;6.47;;;5.10;95.50;;;;;;5086341;28;27395;-61
2020/12/20 07:42:16;;;;;;;9.88;7.32;;;5.10;95.50;;;;;;5086475;28;27445;-60
2020/12/20 07:45:06;;;;;;;9.40;6.43;;;5.20;95.40;;;;;;5082963;28;27408;-61
2020/12/20 07:47:50;;;;;;;9.18;6.50;;;5.20;95.40;;;;;;5070732;28;27341;-60
2020/12/20 07:50:35;;;;;;;10.25;6.68;;;5.20;95.40;;;;;;5086390;28;27309;-60
2020/12/20 07:53:19;;;;;;;9.32;6.35;;;5.30;95.30;;;;;;5083491;28;27430;-60
2020/12/20 07:56:04;;;;;;;10.23;6.72;;;5.30;95.30;;;;;;5086071;28;27411;-60
2020/12/20 07:58:49;;;;;;;7.80;5.35;;;5.40;95.20;;;;;;5085971;28;27393;-59
2020/12/20 08:01:34;;;;;;;10.48;6.50;;;5.50;95.10;;;;;;5085954;28;27399;-60
2020/12/20 08:04:20;;;;;;;9.73;6.20;;;5.50;95.00;;;;;;5085400;28;27382;-61
2020/12/20 08:07:04;;;;;;;8.43;6.20;;;5.60;94.90;;;;;;5085899;28;27390;-61
2020/12/20 08:09:54;;;;;;;9.20;6.53;;;5.70;94.80;;;;;;5086362;28;27411;-61
2020/12/20 08:12:39;;;;;;;13.38;6.88;;;5.70;94.60;;;;;;5085806;28;27462;-60
2020/12/20 08:15:23;;;;;;;8.32;6.13;;;5.80;94.50;;;;;;5085892;28;27423;-61
2020/12/20 08:18:09;;;;;;;11.68;7.00;;;5.80;94.40;;;;;;5085656;28;27534;-51
2020/12/20 08:20:54;;;;;;;11.32;6.82;;;5.90;94.40;;;;;;5085991;28;27512;-59
2020/12/20 08:23:38;;;;;;;11.23;6.00;;;6.00;94.30;;;;;;5085946;28;27462;-60
2020/12/20 08:26:33;;;;;;;12.15;8.25;;;6.00;94.20;;;;;;5056737;28;27486;-61
2020/12/20 08:29:18;;;;;;;10.80;7.32;;;6.10;94.00;;;;;;5082315;28;27549;-61
2020/12/20 08:32:14;;;;;;;12.82;8.68;;;6.20;94.00;;;;;;5068462;28;27666;-60
2020/12/20 08:35:10;;;;;;;12.38;8.27;;;6.30;93.80;;;;;;5082230;28;27424;-60
2020/12/20 08:37:58;;;;;;;14.50;9.43;;;6.40;93.70;;;;;;5085672;28;27448;-61
2020/12/20 08:40:42;;;;;;;13.30;9.00;;;6.50;93.40;;;;;;5085551;28;27397;-61
2020/12/20 08:43:27;;;;;;;12.35;8.55;;;6.50;93.30;;;;;;5085439;28;27435;-61
2020/12/20 08:46:27;;;;;;;13.13;9.50;;;6.60;93.10;;;;;;5085241;28;27574;-61
2020/12/20 08:49:22;;;;;;;13.35;8.73;;;6.70;92.90;;;;;;5085475;28;27992;-60
2020/12/20 08:52:12;;;;;;;13.93;9.93;;;6.80;92.80;;;;;;5085630;28;27385;-61
2020/12/20 08:54:58;;;;;;;14.95;9.52;;;6.80;92.60;;;;;;5084888;28;27651;-61
2020/12/20 08:57:43;;;;;;;14.32;9.55;;;7.00;92.50;;;;;;5084945;28;27373;-61
2020/12/20 09:00:27;;;;;;;14.32;9.65;;;7.20;92.20;;;;;;5085018;28;27466;-60
2020/12/20 09:03:11;;;;;;;11.38;8.38;;;7.50;91.80;;;;;;5085262;28;27483;-61
2020/12/20 09:05:56;;;;;;;11.80;8.35;;;7.80;91.20;;;;;;5085251;28;27403;-61
2020/12/20 09:08:40;;;;;;;12.50;9.05;;;8.10;90.80;;;;;;5085318;28;27405;-61
2020/12/20 09:11:25;;;;;;;12.68;8.90;;;8.50;90.30;;;;;;5084952;28;27477;-50
2020/12/20 09:14:10;;;;;;;11.82;9.32;;;8.80;89.30;;;;;;5084685;28;27471;-60
2020/12/20 09:16:56;;;;;;;14.15;9.40;;;9.10;88.00;;;;;;5085130;28;27446;-60
2020/12/20 09:19:41;;;;;;;11.88;8.68;;;9.30;86.90;;;;;;5084943;28;27007;-60
2020/12/20 09:22:42;;;;;;;13.82;10.23;;;9.40;86.30;;;;;;5084630;28;27449;-59
2020/12/20 09:25:34;;;;;;;13.40;9.32;;;9.30;86.40;;;;;;5084839;28;27411;-50
2020/12/20 09:28:25;;;;;;;13.82;9.10;;;9.30;86.90;;;;;;5069687;28;27337;-61
2020/12/20 09:31:16;;;;;;;14.00;9.52;;;9.30;87.40;;;;;;5070453;28;27434;-60
2020/12/20 09:34:02;;;;;;;13.90;9.63;;;9.30;87.80;;;;;;5084270;28;27868;-60
2020/12/20 09:36:47;;;;;;;14.27;10.30;;;9.30;88.00;;;;;;5084569;28;27352;-57
2020/12/20 09:39:32;;;;;;;15.30;10.35;;;9.30;88.30;;;;;;5084850;28;27364;-59
2020/12/20 09:42:16;;;;;;;16.20;10.25;;;9.30;88.60;;;;;;5084501;28;27308;-60
2020/12/20 09:45:00;;;;;;;15.18;10.73;;;9.40;89.00;;;;;;5084317;28;27392;-50
2020/12/20 09:47:45;;;;;;;13.73;10.23;;;9.40;88.70;;;;;;5069214;28;27332;-57
2020/12/20 09:50:29;;;;;;;14.18;10.05;;;9.50;88.80;;;;;;5084671;28;27381;-60
2020/12/20 09:53:14;;;;;;;13.65;10.52;;;9.50;89.10;;;;;;5083498;28;27350;-59
2020/12/20 09:55:58;;;;;;;14.82;10.52;;;9.50;89.20;;;;;;5084021;28;27399;-59
2020/12/20 09:58:43;;;;;;;15.05;10.55;;;9.50;89.50;;;;;;5084414;28;27419;-59
2020/12/20 10:01:28;;;;;;;14.20;9.98;;;9.50;89.50;;;;;;5084516;28;27340;-59
2020/12/20 10:04:12;;;;;;;16.45;11.48;;;9.60;89.30;;;;;;5084457;28;27407;-60
2020/12/20 10:06:57;;;;;;;14.05;10.60;;;9.60;89.30;;;;;;5084340;28;27435;-60
2020/12/20 10:09:41;;;;;;;17.73;11.30;;;9.60;89.30;;;;;;5085051;28;27443;-60
2020/12/20 10:12:26;;;;;;;13.07;9.90;;;9.50;89.50;;;;;;5087688;28;27463;-60
2020/12/20 10:15:10;;;;;;;15.43;11.73;;;9.50;90.20;;;;;;5087564;28;27463;-60
2020/12/20 10:17:56;;;;;;;15.60;9.90;;;9.50;90.30;;;;;;5087742;28;27989;-60
2020/12/20 10:20:40;;;;;;;14.00;10.52;;;9.50;90.40;;;;;;5088008;28;27461;-60
2020/12/20 10:23:25;;;;;;;15.55;11.10;;;9.50;90.50;;;;;;5087144;28;27454;-60
2020/12/20 10:26:10;;;;;;;16.08;10.95;;;9.50;90.30;;;;;;5087544;28;27420;-60
2020/12/20 10:28:55;;;;;;;12.73;9.80;;;9.60;90.30;;;;;;5087374;28;27462;-59
2020/12/20 10:31:41;;;;;;;14.18;10.75;;;9.60;90.20;;;;;;5087633;28;27478;-58
2020/12/20 10:34:26;;;;;;;15.07;10.75;;;9.70;90.20;;;;;;5087548;28;27470;-59
2020/12/20 10:37:10;;;;;;;16.20;11.73;;;9.80;90.10;;;;;;5087407;28;27438;-59
2020/12/20 10:39:54;;;;;;;15.07;10.68;;;9.90;89.60;;;;;;5087362;28;27453;-60
2020/12/20 10:42:39;;;;;;;15.40;11.43;;;10.10;88.90;;;;;;5087433;28;27516;-60
2020/12/20 10:45:23;;;;;;;14.82;10.45;;;10.30;88.10;;;;;;5087356;28;26859;-59
2020/12/20 10:48:08;;;;;;;15.55;10.90;;;10.40;87.60;;;;;;5087429;28;27453;-60
2020/12/20 10:50:52;;;;;;;16.23;10.93;;;10.50;87.60;;;;;;5069860;28;27436;-60
2020/12/20 10:53:37;;;;;;;17.48;11.65;;;10.50;88.50;;;;;;5086408;28;27518;-60
2020/12/20 10:56:22;;;;;;;14.45;10.65;;;10.60;88.50;;;;;;5087129;28;27426;-60
2020/12/20 10:59:07;;;;;;;14.52;10.73;;;10.60;88.40;;;;;;5072294;28;27396;-60
2020/12/20 11:01:51;;;;;;;14.63;10.90;;;10.70;88.50;;;;;;5087260;28;27395;-60
2020/12/20 11:04:36;;;;;;;14.63;11.18;;;10.70;88.50;;;;;;5086845;28;27542;-60
2020/12/20 11:07:20;;;;;;;15.63;11.80;;;10.70;88.60;;;;;;5087102;28;27344;-52
2020/12/20 11:10:05;;;;;;;16.52;11.80;;;10.70;88.80;;;;;;5086691;28;27379;-59
2020/12/20 11:12:49;;;;;;;15.27;11.60;;;10.70;88.90;;;;;;5086826;28;27347;-50
2020/12/20 11:15:34;;;;;;;17.05;12.10;;;10.70;88.60;;;;;;5087026;28;27395;-60
2020/12/20 11:18:19;;;;;;;15.70;12.00;;;11.00;88.00;;;;;;5071415;28;27356;-60
2020/12/20 11:21:03;;;;;;;16.30;12.43;;;11.20;86.90;;;;;;5086308;28;27318;-60
2020/12/20 11:23:48;;;;;;;14.73;11.27;;;11.50;85.90;;;;;;5086843;28;27423;-60
2020/12/20 11:26:35;;;;;;;15.27;11.30;;;11.70;85.00;;;;;;5068584;28;27499;-58
2020/12/20 11:29:20;;;;;;;15.13;11.73;;;11.80;83.80;;;;;;5072119;28;27377;-61
2020/12/20 11:32:06;;;;;;;15.20;11.68;;;12.00;83.30;;;;;;5086452;28;27383;-61
2020/12/20 11:34:50;;;;;;;16.05;11.93;;;12.30;83.00;;;;;;5085891;28;27427;-59
2020/12/20 11:37:35;;;;;;;17.50;11.23;;;12.60;81.90;;;;;;5086164;28;27399;-60
2020/12/20 11:40:19;;;;;;;14.73;10.82;;;13.00;81.00;;;;;;5086240;28;27342;-49
2020/12/20 11:43:04;;;;;;;13.55;10.15;;;13.10;79.90;;;;;;5086538;28;27389;-60
2020/12/20 11:45:50;;;;;;;14.48;10.73;;;13.20;79.70;;;;;;5086193;28;27345;-58
2020/12/20 11:48:34;;;;;;;12.98;9.88;;;13.30;80.40;;;;;;5083032;28;27401;-60
2020/12/20 11:51:19;;;;;;;11.88;9.70;;;13.30;80.20;;;;;;5086117;28;27410;-60
2020/12/20 11:54:04;;;;;;;13.95;10.20;;;13.30;80.90;;;;;;5085215;28;27660;-60
2020/12/20 11:56:48;;;;;;;12.82;10.20;;;13.20;80.80;;;;;;5086232;28;27352;-59
2020/12/20 11:59:33;;;;;;;14.10;10.23;;;13.20;81.10;;;;;;5085946;28;27394;-59
2020/12/20 12:02:17;;;;;;;10.68;8.85;;;13.20;81.60;;;;;;5086155;28;27479;-58
2020/12/20 12:05:02;;;;;;;12.85;9.18;;;13.10;81.60;;;;;;5082707;28;27393;-48
2020/12/20 12:07:46;;;;;;;10.70;9.52;;;13.00;82.30;;;;;;5085589;28;27470;-59
2020/12/20 12:10:32;;;;;;;9.70;7.85;;;12.90;82.50;;;;;;5085786;28;27431;-54
2020/12/20 12:13:17;;;;;;;12.32;9.15;;;12.70;83.80;;;;;;5062290;28;27373;-47
2020/12/20 12:16:02;;;;;;;14.65;9.57;;;12.60;84.40;;;;;;5065045;28;26869;-60
2020/12/20 12:18:47;;;;;;;12.20;8.65;;;12.40;85.20;;;;;;5050198;28;27491;-60
2020/12/20 12:21:31;;;;;;;11.65;8.80;;;12.30;85.60;;;;;;5065347;28;27467;-60
2020/12/20 12:24:15;;;;;;;12.02;8.60;;;12.20;85.70;;;;;;5065535;28;26952;-59
2020/12/20 12:27:00;;;;;;;12.43;9.45;;;12.10;86.10;;;;;;5050273;28;27528;-60
2020/12/20 12:29:44;;;;;;;12.55;9.23;;;12.00;86.60;;;;;;5065219;28;27423;-59
2020/12/20 12:32:29;;;;;;;12.35;9.25;;;11.90;86.90;;;;;;5064733;28;27483;-59
2020/12/20 12:35:14;;;;;;;11.20;8.82;;;11.90;87.00;;;;;;5064911;28;27460;-59
2020/12/20 12:37:58;;;;;;;13.70;9.13;;;11.90;87.30;;;;;;5064967;28;27424;-60
2020/12/20 12:40:43;;;;;;;12.05;8.95;;;11.80;87.50;;;;;;5064986;28;27944;-59
2020/12/20 12:43:28;;;;;;;10.57;8.10;;;11.80;87.50;;;;;;5064971;28;27591;-59
2020/12/20 12:46:13;;;;;;;12.40;9.27;;;11.90;87.10;;;;;;5065056;28;27472;-58
2020/12/20 12:48:57;;;;;;;9.63;8.40;;;11.90;87.10;;;;;;5065344;28;27380;-59
2020/12/20 12:51:42;;;;;;;10.93;8.65;;;11.90;87.20;;;;;;5065168;28;27355;-59
2020/12/20 12:54:26;;;;;;;10.77;8.13;;;11.90;87.50;;;;;;5064371;28;27396;-58
2020/12/20 12:57:11;;;;;;;11.90;8.80;;;11.90;87.20;;;;;;5065034;28;27383;-59
2020/12/20 12:59:55;;;;;;;11.90;8.82;;;12.00;87.10;;;;;;5064843;28;27372;-59
2020/12/20 13:02:40;;;;;;;11.65;9.15;;;12.10;86.90;;;;;;5064699;28;27862;-59
2020/12/20 13:05:25;;;;;;;10.10;8.38;;;12.10;86.50;;;;;;5064949;28;27371;-59
2020/12/20 13:08:09;;;;;;;13.02;8.63;;;12.10;87.60;;;;;;5064626;28;27337;-59
2020/12/20 13:10:54;;;;;;;11.88;8.98;;;12.00;87.10;;;;;;5064901;28;27356;-59
2020/12/20 13:13:38;;;;;;;10.13;8.23;;;12.00;87.30;;;;;;5064930;28;27424;-59
2020/12/20 13:16:23;;;;;;;11.70;8.18;;;11.90;87.60;;;;;;5064707;28;27429;-59
2020/12/20 13:19:08;;;;;;;11.55;8.65;;;11.80;87.80;;;;;;5064417;28;27400;-59
2020/12/20 13:21:52;;;;;;;12.15;8.25;;;11.70;87.90;;;;;;5046479;28;27482;-58
2020/12/20 13:24:37;;;;;;;9.63;8.20;;;11.60;88.20;;;;;;5064195;28;28079;-58
2020/12/20 13:27:21;;;;;;;9.30;7.72;;;11.50;88.50;;;;;;5049240;28;27517;-58
2020/12/20 13:30:06;;;;;;;11.52;8.02;;;11.40;89.40;;;;;;5061311;28;27458;-59
2020/12/20 13:32:51;;;;;;;12.32;8.20;;;11.40;88.80;;;;;;5064773;28;27470;-57
2020/12/20 13:35:36;;;;;;;11.25;8.18;;;11.40;88.80;;;;;;5049088;28;27435;-58
2020/12/20 13:38:20;;;;;;;11.40;8.70;;;11.30;88.90;;;;;;5063726;28;27555;-59
2020/12/20 13:41:05;;;;;;;10.45;8.10;;;11.30;89.10;;;;;;5064211;28;27495;-59
2020/12/20 13:43:50;;;;;;;11.73;8.13;;;11.30;89.20;;;;;;5063927;28;27392;-57
2020/12/20 13:46:34;;;;;;;12.25;8.48;;;11.30;89.30;;;;;;5064225;28;27471;-59
2020/12/20 13:49:19;;;;;;;11.57;8.35;;;11.30;89.30;;;;;;5064272;28;27625;-58
2020/12/20 13:52:04;;;;;;;8.25;7.22;;;11.30;89.30;;;;;;5064350;28;27436;-60
2020/12/20 13:54:48;;;;;;;10.52;8.52;;;11.20;89.50;;;;;;5084059;28;27436;-60
2020/12/20 13:57:33;;;;;;;10.55;8.27;;;11.20;89.40;;;;;;5083633;28;28668;-60
2020/12/20 14:00:19;;;;;;;10.13;8.02;;;11.30;89.60;;;;;;5084470;28;27466;-60
2020/12/20 14:03:04;;;;;;;10.57;7.95;;;11.30;89.60;;;;;;5080989;28;27454;-59
2020/12/20 14:05:48;;;;;;;11.07;8.35;;;11.20;89.60;;;;;;5084045;28;27455;-59
2020/12/20 14:08:33;;;;;;;7.78;6.78;;;11.20;89.70;;;;;;5084450;28;27470;-60
2020/12/20 14:11:17;;;;;;;10.88;7.90;;;11.20;89.60;;;;;;5084277;28;27369;-51
2020/12/20 14:14:02;;;;;;;10.98;8.15;;;11.20;89.90;;;;;;5083726;28;27495;-59
2020/12/20 14:16:50;;;;;;;8.65;6.95;;;11.10;90.00;;;;;;5084069;28;27404;-59
2020/12/20 14:19:36;;;;;;;10.75;7.47;;;11.10;90.00;;;;;;5083942;28;27462;-48
2020/12/20 14:22:20;;;;;;;10.48;7.20;;;11.00;90.10;;;;;;5084185;28;27470;-59
2020/12/20 14:25:05;;;;;;;9.73;7.75;;;11.00;90.10;;;;;;5084151;28;27425;-59
2020/12/20 14:27:50;;;;;;;9.70;7.38;;;10.90;90.20;;;;;;5084078;28;27476;-60